Time,TemperatureF,DewpointF,PressureIn,WindDirection,WindDirectionDegrees,WindSpeedMPH,WindSpeedGustMPH,Humidity,HourlyPrecipIn,Conditions,Clouds,dailyrainin,SolarRadiationWatts/m^2,SoftwareType,DateUTC
2013-05-16 00:00:00,67.3,47.0,29.77,SSW,212,0.0,-999.0,48,-99.99,,,0.00,0,weatherlink.com 1.10,2013-05-16 05:00:00,
2013-05-16 00:09:00,67.1,48.0,29.77,SSW,212,0.0,-999.0,50,-99.99,,,0.00,0,weatherlink.com 1.10,2013-05-16 05:09:00,
2013-05-16 00:24:00,66.4,49.0,29.77,SSW,212,0.0,-999.0,53,-99.99,,,0.00,0,weatherlink.com 1.10,2013-05-16 05:24:00,
2013-05-16 00:39:00,66.1,50.0,29.78,SSW,212,0.0,-999.0,56,-99.99,,,0.00,0,weatherlink.com 1.10,2013-05-16 05:39:00,
2013-05-16 00:54:00,65.0,55.0,29.79,SSW,213,0.0,-999.0,70,-99.99,,,0.04,0,weatherlink.com 1.10,2013-05-16 05:54:00,
2013-05-16 01:12:00,62.0,56.0,29.80,SSW,213,0.0,-999.0,80,-99.99,,,0.04,0,weatherlink.com 1.10,2013-05-16 06:12:00,
2013-05-16 01:24:00,61.5,55.0,29.80,SSW,213,0.0,-999.0,80,-99.99,,,0.04,0,weatherlink.com 1.10,2013-05-16 06:24:00,
2013-05-16 01:39:00,61.2,57.0,29.80,SSW,213,0.0,-999.0,86,-99.99,,,0.04,0,weatherlink.com 1.10,2013-05-16 06:39:00,
2013-05-16 01:54:00,61.0,57.0,29.78,SSW,213,0.0,-999.0,86,-99.99,,,0.04,0,weatherlink.com 1.10,2013-05-16 06:54:00,
2013-05-16 02:09:00,60.9,56.0,29.78,SSW,213,0.0,-999.0,83,-99.99,,,0.04,0,weatherlink.com 1.10,2013-05-16 07:09:00,
2013-05-16 02:24:00,61.3,57.0,29.78,SSW,213,0.0,-999.0,86,-99.99,,,0.06,0,weatherlink.com 1.10,2013-05-16 07:24:00,
2013-05-16 02:39:00,60.2,55.0,29.78,SSW,213,0.0,-999.0,84,-99.99,,,0.08,0,weatherlink.com 1.10,2013-05-16 07:39:00,
2013-05-16 02:54:00,59.9,56.0,29.79,SSW,213,0.0,-999.0,87,-99.99,,,0.08,0,weatherlink.com 1.10,2013-05-16 07:54:00,
2013-05-16 03:09:00,59.8,56.0,29.78,SSW,213,0.0,-999.0,87,-99.99,,,0.08,0,weatherlink.com 1.10,2013-05-16 08:09:00,
2013-05-16 03:31:00,59.6,56.0,29.78,SSW,213,0.0,-999.0,86,-99.99,,,0.08,0,weatherlink.com 1.10,2013-05-16 08:31:00,
2013-05-16 03:39:00,59.6,55.0,29.78,SSW,213,0.0,-999.0,84,-99.99,,,0.08,0,weatherlink.com 1.10,2013-05-16 08:39:00,
2013-05-16 03:54:00,59.5,55.0,29.78,SSW,213,0.0,-999.0,84,-99.99,,,0.08,0,weatherlink.com 1.10,2013-05-16 08:54:00,
2013-05-16 04:09:00,59.0,54.0,29.79,SSW,213,0.0,-999.0,82,-99.99,,,0.08,0,weatherlink.com 1.10,2013-05-16 09:09:00,
2013-05-16 04:24:00,59.5,53.0,29.79,WNW,298,3.0,-999.0,79,-99.99,,,0.08,0,weatherlink.com 1.10,2013-05-16 09:24:00,
2013-05-16 04:54:00,59.8,53.0,29.80,WNW,302,0.0,-999.0,77,-99.99,,,0.08,0,weatherlink.com 1.10,2013-05-16 09:54:00,
2013-05-16 05:09:00,59.6,52.0,29.79,WNW,302,0.0,-999.0,77,-99.99,,,0.08,0,weatherlink.com 1.10,2013-05-16 10:09:00,
2013-05-16 05:24:00,59.6,52.0,29.79,WNW,302,0.0,-999.0,77,-99.99,,,0.08,0,weatherlink.com 1.10,2013-05-16 10:24:00,
2013-05-16 05:39:00,59.3,52.0,29.79,WNW,302,0.0,-999.0,78,-99.99,,,0.08,0,weatherlink.com 1.10,2013-05-16 10:39:00,
2013-05-16 05:54:00,59.2,52.0,29.79,WNW,302,0.0,-999.0,78,-99.99,,,0.08,0,weatherlink.com 1.10,2013-05-16 10:54:00,
2013-05-16 06:09:00,59.9,53.0,29.79,WNW,302,0.0,-999.0,77,-99.99,,,0.08,7,weatherlink.com 1.10,2013-05-16 11:09:00,
2013-05-16 06:24:00,60.2,54.0,29.79,WNW,302,0.0,-999.0,79,-99.99,,,0.08,12,weatherlink.com 1.10,2013-05-16 11:24:00,
2013-05-16 06:39:00,60.4,54.0,29.80,WNW,302,0.0,-999.0,79,-99.99,,,0.08,21,weatherlink.com 1.10,2013-05-16 11:39:00,
2013-05-16 07:02:00,60.4,54.0,29.80,WNW,302,0.0,-999.0,80,-99.99,,,0.08,44,weatherlink.com 1.10,2013-05-16 12:02:00,
2013-05-16 07:09:00,60.4,54.0,29.80,WNW,302,0.0,-999.0,80,-99.99,,,0.08,39,weatherlink.com 1.10,2013-05-16 12:09:00,
2013-05-16 07:24:00,60.7,55.0,29.80,SW,222,0.0,-999.0,81,-99.99,,,0.08,47,weatherlink.com 1.10,2013-05-16 12:24:00,
2013-05-16 07:39:00,60.9,55.0,29.81,WNW,298,0.0,-999.0,82,-99.99,,,0.08,84,weatherlink.com 1.10,2013-05-16 12:39:00,
2013-05-16 07:54:00,61.5,56.0,29.81,NW,312,0.0,-999.0,82,-99.99,,,0.08,74,weatherlink.com 1.10,2013-05-16 12:54:00,
2013-05-16 08:10:00,61.8,56.0,29.82,NW,312,0.0,-999.0,82,-99.99,,,0.08,86,weatherlink.com 1.10,2013-05-16 13:10:00,
2013-05-16 08:24:00,62.1,57.0,29.82,NW,315,0.0,-999.0,83,-99.99,,,0.08,95,weatherlink.com 1.10,2013-05-16 13:24:00,
2013-05-16 08:39:00,62.4,58.0,29.83,NW,313,0.0,-999.0,84,-99.99,,,0.08,98,weatherlink.com 1.10,2013-05-16 13:39:00,
2013-05-16 08:54:00,62.7,58.0,29.84,North,5,0.0,-999.0,84,-99.99,,,0.08,79,weatherlink.com 1.10,2013-05-16 13:54:00,
2013-05-16 09:25:00,64.5,60.0,29.84,North,5,0.0,-999.0,86,-99.99,,,0.08,169,weatherlink.com 1.10,2013-05-16 14:25:00,
2013-05-16 09:40:00,65.6,61.0,29.84,North,5,0.0,-999.0,86,-99.99,,,0.08,179,weatherlink.com 1.10,2013-05-16 14:40:00,
2013-05-16 09:55:00,66.4,62.0,29.83,North,5,0.0,-999.0,86,-99.99,,,0.08,192,weatherlink.com 1.10,2013-05-16 14:55:00,
2013-05-16 10:10:00,67.4,63.0,29.83,North,5,0.0,-999.0,86,-99.99,,,0.08,221,weatherlink.com 1.10,2013-05-16 15:10:00,
2013-05-16 10:31:00,68.9,64.0,29.82,NW,317,5.0,-999.0,84,-99.99,,,0.08,246,weatherlink.com 1.10,2013-05-16 15:31:00,
2013-05-16 10:40:00,69.1,64.0,29.82,North,360,0.0,-999.0,83,-99.99,,,0.08,236,weatherlink.com 1.10,2013-05-16 15:40:00,
2013-05-16 10:55:00,70.4,65.0,29.82,NNW,344,0.0,-999.0,83,-99.99,,,0.08,513,weatherlink.com 1.10,2013-05-16 15:55:00,
2013-05-16 11:10:00,73.0,65.0,29.81,NNE,23,0.0,-999.0,77,-99.99,,,0.08,795,weatherlink.com 1.10,2013-05-16 16:10:00,
2013-05-16 11:25:00,74.2,66.0,29.81,NW,306,1.0,-999.0,76,-99.99,,,0.08,944,weatherlink.com 1.10,2013-05-16 16:25:00,
2013-05-16 11:42:00,75.3,66.0,29.80,NW,319,0.0,-999.0,73,-99.99,,,0.08,237,weatherlink.com 1.10,2013-05-16 16:42:00,
2013-05-16 11:55:00,75.4,66.0,29.80,NNW,334,4.0,-999.0,72,-99.99,,,0.08,322,weatherlink.com 1.10,2013-05-16 16:55:00,
2013-05-16 12:10:00,76.7,66.0,29.79,NW,316,3.0,-999.0,69,-99.99,,,0.08,608,weatherlink.com 1.10,2013-05-16 17:10:00,
2013-05-16 12:25:00,76.1,65.0,29.79,NW,310,7.0,-999.0,68,-99.99,,,0.08,341,weatherlink.com 1.10,2013-05-16 17:25:00,
2013-05-16 12:40:00,76.0,66.0,29.79,NNW,336,3.0,-999.0,71,-99.99,,,0.08,265,weatherlink.com 1.10,2013-05-16 17:40:00,
2013-05-16 12:55:00,75.8,67.0,29.79,NNE,14,2.0,-999.0,73,-99.99,,,0.08,383,weatherlink.com 1.10,2013-05-16 17:55:00,
2013-05-16 13:10:00,76.3,65.0,29.78,NW,315,4.0,-999.0,69,-99.99,,,0.08,420,weatherlink.com 1.10,2013-05-16 18:10:00,
2013-05-16 13:25:00,77.4,66.0,29.78,NNW,337,7.0,-999.0,69,-99.99,,,0.08,504,weatherlink.com 1.10,2013-05-16 18:25:00,
2013-05-16 13:40:00,76.8,66.0,29.77,WNW,301,5.0,-999.0,70,-99.99,,,0.08,403,weatherlink.com 1.10,2013-05-16 18:40:00,
2013-05-16 14:01:00,76.8,66.0,29.77,North,355,5.0,-999.0,70,-99.99,,,0.08,596,weatherlink.com 1.10,2013-05-16 19:01:00,
2013-05-16 14:10:00,77.2,67.0,29.77,NW,321,6.0,-999.0,70,-99.99,,,0.08,686,weatherlink.com 1.10,2013-05-16 19:10:00,
2013-05-16 14:25:00,77.9,67.0,29.77,WNW,297,3.0,-999.0,69,-99.99,,,0.08,526,weatherlink.com 1.10,2013-05-16 19:25:00,
2013-05-16 14:40:00,78.6,67.0,29.76,North,5,3.0,-999.0,67,-99.99,,,0.08,487,weatherlink.com 1.10,2013-05-16 19:40:00,
2013-05-16 14:55:00,78.6,66.0,29.76,NW,319,4.0,-999.0,65,-99.99,,,0.08,427,weatherlink.com 1.10,2013-05-16 19:55:00,
2013-05-16 15:12:00,78.1,65.0,29.76,North,355,8.0,-999.0,64,-99.99,,,0.08,260,weatherlink.com 1.10,2013-05-16 20:12:00,
2013-05-16 15:25:00,78.5,65.0,29.76,NE,52,6.0,-999.0,63,-99.99,,,0.08,315,weatherlink.com 1.10,2013-05-16 20:25:00,
2013-05-16 15:40:00,79.2,65.0,29.75,NNW,348,4.0,-999.0,62,-99.99,,,0.08,313,weatherlink.com 1.10,2013-05-16 20:40:00,
2013-05-16 15:55:00,79.4,64.0,29.75,North,5,2.0,-999.0,60,-99.99,,,0.08,260,weatherlink.com 1.10,2013-05-16 20:55:00,
2013-05-16 16:10:00,79.4,65.0,29.75,NNW,345,4.0,-999.0,61,-99.99,,,0.08,171,weatherlink.com 1.10,2013-05-16 21:10:00,
2013-05-16 16:25:00,79.8,65.0,29.75,North,355,2.0,-999.0,61,-99.99,,,0.08,165,weatherlink.com 1.10,2013-05-16 21:25:00,
2013-05-16 16:40:00,79.9,63.0,29.75,NNE,24,3.0,-999.0,57,-99.99,,,0.08,213,weatherlink.com 1.10,2013-05-16 21:40:00,
2013-05-16 16:55:00,80.3,64.0,29.75,North,5,4.0,-999.0,58,-99.99,,,0.08,229,weatherlink.com 1.10,2013-05-16 21:55:00,
2013-05-16 17:10:00,80.1,64.0,29.75,North,5,3.0,-999.0,59,-99.99,,,0.08,141,weatherlink.com 1.10,2013-05-16 22:10:00,
2013-05-16 17:32:00,80.1,65.0,29.73,WNW,302,5.0,-999.0,60,-99.99,,,0.08,216,weatherlink.com 1.10,2013-05-16 22:32:00,
2013-05-16 17:40:00,80.1,64.0,29.73,NE,42,4.0,-999.0,59,-99.99,,,0.08,251,weatherlink.com 1.10,2013-05-16 22:40:00,
2013-05-16 17:55:00,79.6,64.0,29.73,NW,326,3.0,-999.0,59,-99.99,,,0.08,283,weatherlink.com 1.10,2013-05-16 22:55:00,
2013-05-16 18:10:00,79.2,64.0,29.73,WNW,294,6.0,-999.0,60,-99.99,,,0.08,132,weatherlink.com 1.10,2013-05-16 23:10:00,
2013-05-16 18:25:00,78.3,65.0,29.72,WNW,295,9.0,-999.0,63,-99.99,,,0.08,51,weatherlink.com 1.10,2013-05-16 23:25:00,
2013-05-16 18:41:00,77.4,65.0,29.72,NW,309,2.0,-999.0,65,-99.99,,,0.08,42,weatherlink.com 1.10,2013-05-16 23:41:00,
2013-05-16 18:55:00,77.0,64.0,29.72,North,351,1.0,-999.0,65,-99.99,,,0.08,42,weatherlink.com 1.10,2013-05-16 23:55:00,
2013-05-16 19:10:00,76.3,65.0,29.72,NW,309,2.0,-999.0,68,-99.99,,,0.08,39,weatherlink.com 1.10,2013-05-17 00:10:00,
2013-05-16 19:25:00,75.8,64.0,29.72,NNW,346,0.0,-999.0,68,-99.99,,,0.08,33,weatherlink.com 1.10,2013-05-17 00:25:00,
2013-05-16 19:40:00,75.6,64.0,29.73,NNW,346,0.0,-999.0,68,-99.99,,,0.08,26,weatherlink.com 1.10,2013-05-17 00:40:00,
2013-05-16 19:55:00,75.4,65.0,29.74,NW,309,4.0,-999.0,69,-99.99,,,0.08,16,weatherlink.com 1.10,2013-05-17 00:55:00,
2013-05-16 20:10:00,73.5,61.0,29.74,NW,315,0.0,-999.0,64,-99.99,,,0.08,5,weatherlink.com 1.10,2013-05-17 01:10:00,
2013-05-16 20:25:00,72.0,59.0,29.75,NW,311,0.0,-999.0,63,-99.99,,,0.08,0,weatherlink.com 1.10,2013-05-17 01:25:00,
2013-05-16 20:40:00,71.3,58.0,29.75,NW,306,0.0,-999.0,63,-99.99,,,0.08,0,weatherlink.com 1.10,2013-05-17 01:40:00,
2013-05-16 21:00:00,70.3,58.0,29.76,NW,306,0.0,-999.0,65,-99.99,,,0.08,0,weatherlink.com 1.10,2013-05-17 02:00:00,
2013-05-16 21:10:00,70.1,58.0,29.77,NW,306,0.0,-999.0,65,-99.99,,,0.08,0,weatherlink.com 1.10,2013-05-17 02:10:00,
2013-05-16 21:25:00,69.9,58.0,29.77,NW,306,0.0,-999.0,65,-99.99,,,0.08,0,weatherlink.com 1.10,2013-05-17 02:25:00,
2013-05-16 21:40:00,69.4,58.0,29.77,NW,306,0.0,-999.0,68,-99.99,,,0.08,0,weatherlink.com 1.10,2013-05-17 02:40:00,
2013-05-16 21:55:00,68.8,59.0,29.79,WNW,302,0.0,-999.0,70,-99.99,,,0.08,0,weatherlink.com 1.10,2013-05-17 02:55:00,
2013-05-16 22:11:00,69.1,59.0,29.78,NW,304,0.0,-999.0,71,-99.99,,,0.08,0,weatherlink.com 1.10,2013-05-17 03:11:00,
2013-05-16 22:25:00,68.9,60.0,29.77,NW,304,0.0,-999.0,72,-99.99,,,0.08,0,weatherlink.com 1.10,2013-05-17 03:25:00,
2013-05-16 22:40:00,67.9,59.0,29.77,NW,309,0.0,-999.0,74,-99.99,,,0.08,0,weatherlink.com 1.10,2013-05-17 03:40:00,
2013-05-16 22:55:00,67.8,60.0,29.76,NW,306,3.0,-999.0,77,-99.99,,,0.08,0,weatherlink.com 1.10,2013-05-17 03:55:00,
2013-05-16 23:10:00,67.3,60.0,29.77,NW,307,0.0,-999.0,78,-99.99,,,0.08,0,weatherlink.com 1.10,2013-05-17 04:10:00,
2013-05-16 23:25:00,66.9,61.0,29.77,NW,307,0.0,-999.0,80,-99.99,,,0.08,0,weatherlink.com 1.10,2013-05-17 04:25:00,
2013-05-16 23:40:00,66.6,61.0,29.76,NW,307,0.0,-999.0,81,-99.99,,,0.08,0,weatherlink.com 1.10,2013-05-17 04:40:00,
2013-05-16 23:55:00,66.3,61.0,29.76,NW,305,0.0,-999.0,82,-99.99,,,0.08,0,weatherlink.com 1.10,2013-05-17 04:55:00,